sensor_id;sensor_type;location;lat;lon;timestamp;pressure;altitude;pressure_sealevel;temperature;humidity
69239;BME280;56349;51.816;-0.026;2023-05-25T00:01:32;102109.71;;;28.87;25.26
69239;BME280;56349;51.816;-0.026;2023-05-25T00:03:58;102112.49;;;29.14;25.25
69239;BME280;56349;51.816;-0.026;2023-05-25T00:06:24;102115.48;;;29.13;25.25
69239;BME280;56349;51.816;-0.026;2023-05-25T00:08:50;102119.25;;;28.85;25.26
69239;BME280;56349;51.816;-0.026;2023-05-25T00:11:16;102124.23;;;29.09;25.29
69239;BME280;56349;51.816;-0.026;2023-05-25T00:13:42;102121.92;;;29.05;25.33
69239;BME280;56349;51.816;-0.026;2023-05-25T00:16:08;102125.90;;;28.78;25.32
69239;BME280;56349;51.816;-0.026;2023-05-25T00:18:34;102125.00;;;29.05;25.32
69239;BME280;56349;51.816;-0.026;2023-05-25T00:21:00;102127.07;;;28.77;25.32
69239;BME280;56349;51.816;-0.026;2023-05-25T00:23:26;102129.18;;;28.73;25.34
69239;BME280;56349;51.816;-0.026;2023-05-25T00:25:52;102130.23;;;28.99;25.35
69239;BME280;56349;51.816;-0.026;2023-05-25T00:28:18;102133.56;;;28.99;25.34
69239;BME280;56349;51.816;-0.026;2023-05-25T00:30:44;102136.03;;;28.72;25.35
69239;BME280;56349;51.816;-0.026;2023-05-25T00:33:10;102134.62;;;28.47;25.36
69239;BME280;56349;51.816;-0.026;2023-05-25T00:35:36;102137.97;;;28.66;25.37
69239;BME280;56349;51.816;-0.026;2023-05-25T00:38:02;102139.80;;;28.91;25.39
69239;BME280;56349;51.816;-0.026;2023-05-25T00:40:28;102141.50;;;28.91;25.37
69239;BME280;56349;51.816;-0.026;2023-05-25T00:42:55;102144.66;;;28.59;25.38
69239;BME280;56349;51.816;-0.026;2023-05-25T00:45:19;102144.62;;;28.97;25.41
69239;BME280;56349;51.816;-0.026;2023-05-25T00:47:49;102147.00;;;28.61;25.48
69239;BME280;56349;51.816;-0.026;2023-05-25T00:50:14;102151.10;;;28.45;25.57
69239;BME280;56349;51.816;-0.026;2023-05-25T00:52:36;102148.55;;;28.45;25.68
69239;BME280;56349;51.816;-0.026;2023-05-25T00:55:03;102152.98;;;28.45;25.84
69239;BME280;56349;51.816;-0.026;2023-05-25T00:57:29;102155.00;;;28.19;26.00
69239;BME280;56349;51.816;-0.026;2023-05-25T00:59:54;102157.23;;;27.96;26.18
69239;BME280;56349;51.816;-0.026;2023-05-25T01:02:19;102156.34;;;27.70;26.38
69239;BME280;56349;51.816;-0.026;2023-05-25T01:04:48;102155.33;;;27.47;26.56
69239;BME280;56349;51.816;-0.026;2023-05-25T01:07:13;102151.52;;;27.22;26.77
69239;BME280;56349;51.816;-0.026;2023-05-25T01:09:38;102153.87;;;27.48;26.97
69239;BME280;56349;51.816;-0.026;2023-05-25T01:12:02;102151.57;;;27.23;27.18
69239;BME280;56349;51.816;-0.026;2023-05-25T01:14:27;102153.05;;;26.99;27.39
69239;BME280;56349;51.816;-0.026;2023-05-25T01:16:53;102153.47;;;26.76;27.60
69239;BME280;56349;51.816;-0.026;2023-05-25T01:19:18;102154.93;;;26.79;27.84
69239;BME280;56349;51.816;-0.026;2023-05-25T01:21:47;102156.59;;;26.31;28.04
69239;BME280;56349;51.816;-0.026;2023-05-25T01:24:13;102156.87;;;26.37;28.25
69239;BME280;56349;51.816;-0.026;2023-05-25T01:26:41;102159.22;;;26.17;28.44
69239;BME280;56349;51.816;-0.026;2023-05-25T01:29:01;102161.86;;;26.21;28.63
69239;BME280;56349;51.816;-0.026;2023-05-25T01:31:27;102162.28;;;26.01;28.84
69239;BME280;56349;51.816;-0.026;2023-05-25T01:33:52;102161.12;;;25.84;29.03
69239;BME280;56349;51.816;-0.026;2023-05-25T01:36:18;102162.46;;;25.68;29.21
69239;BME280;56349;51.816;-0.026;2023-05-25T01:38:43;102160.99;;;25.74;29.40
69239;BME280;56349;51.816;-0.026;2023-05-25T01:41:09;102161.91;;;25.57;29.58
69239;BME280;56349;51.816;-0.026;2023-05-25T01:43:35;102164.62;;;25.68;29.75
69239;BME280;56349;51.816;-0.026;2023-05-25T01:46:09;102167.14;;;25.52;29.93
69239;BME280;56349;51.816;-0.026;2023-05-25T01:48:31;102162.55;;;25.12;30.09
69239;BME280;56349;51.816;-0.026;2023-05-25T01:50:56;102164.09;;;25.27;30.23
69239;BME280;56349;51.816;-0.026;2023-05-25T01:53:22;102163.51;;;25.16;30.35
69239;BME280;56349;51.816;-0.026;2023-05-25T01:55:48;102160.70;;;25.02;30.52
69239;BME280;56349;51.816;-0.026;2023-05-25T01:58:14;102156.87;;;24.91;30.66
69239;BME280;56349;51.816;-0.026;2023-05-25T02:00:37;102164.56;;;24.80;30.80
69239;BME280;56349;51.816;-0.026;2023-05-25T02:03:03;102154.06;;;24.71;30.92
69239;BME280;56349;51.816;-0.026;2023-05-25T02:05:28;102164.63;;;24.62;31.04
69239;BME280;56349;51.816;-0.026;2023-05-25T02:07:53;102162.13;;;24.98;31.14
69239;BME280;56349;51.816;-0.026;2023-05-25T02:10:19;102158.06;;;24.48;31.23
69239;BME280;56349;51.816;-0.026;2023-05-25T02:12:45;102162.43;;;24.83;31.33
69239;BME280;56349;51.816;-0.026;2023-05-25T02:15:11;102161.63;;;24.51;31.45
69239;BME280;56349;51.816;-0.026;2023-05-25T02:17:37;102161.68;;;24.19;31.57
69239;BME280;56349;51.816;-0.026;2023-05-25T02:20:02;102164.29;;;24.32;31.68
69239;BME280;56349;51.816;-0.026;2023-05-25T02:22:27;102166.73;;;24.48;31.77
69239;BME280;56349;51.816;-0.026;2023-05-25T02:24:53;102168.93;;;24.43;31.83
69239;BME280;56349;51.816;-0.026;2023-05-25T02:27:19;102173.36;;;24.36;31.92
69239;BME280;56349;51.816;-0.026;2023-05-25T02:29:44;102177.59;;;24.31;32.00
69239;BME280;56349;51.816;-0.026;2023-05-25T02:32:10;102177.59;;;24.27;32.06
69239;BME280;56349;51.816;-0.026;2023-05-25T02:34:36;102179.51;;;24.46;32.14
69239;BME280;56349;51.816;-0.026;2023-05-25T02:37:02;102178.36;;;24.12;32.24
69239;BME280;56349;51.816;-0.026;2023-05-25T02:39:28;102179.22;;;24.05;32.33
69239;BME280;56349;51.816;-0.026;2023-05-25T02:41:54;102181.48;;;24.00;32.41
69239;BME280;56349;51.816;-0.026;2023-05-25T02:44:21;102183.92;;;24.23;32.45
69239;BME280;56349;51.816;-0.026;2023-05-25T02:46:45;102182.37;;;23.92;32.52
69239;BME280;56349;51.816;-0.026;2023-05-25T02:49:11;102184.35;;;23.87;32.60
69239;BME280;56349;51.816;-0.026;2023-05-25T02:51:37;102181.28;;;24.30;32.67
69239;BME280;56349;51.816;-0.026;2023-05-25T02:54:03;102181.25;;;23.77;32.74
69239;BME280;56349;51.816;-0.026;2023-05-25T02:56:29;102184.15;;;23.73;32.77
69239;BME280;56349;51.816;-0.026;2023-05-25T02:58:55;102185.75;;;23.69;32.84
69239;BME280;56349;51.816;-0.026;2023-05-25T03:01:21;102185.98;;;23.91;32.91
69239;BME280;56349;51.816;-0.026;2023-05-25T03:03:47;102185.94;;;23.61;32.95
69239;BME280;56349;51.816;-0.026;2023-05-25T03:06:13;102184.43;;;23.85;32.99
69239;BME280;56349;51.816;-0.026;2023-05-25T03:08:38;102184.66;;;24.06;33.02
69239;BME280;56349;51.816;-0.026;2023-05-25T03:11:04;102182.97;;;23.55;33.04
69239;BME280;56349;51.816;-0.026;2023-05-25T03:13:30;102183.70;;;24.00;33.09
69239;BME280;56349;51.816;-0.026;2023-05-25T03:15:56;102183.33;;;23.73;33.16
69239;BME280;56349;51.816;-0.026;2023-05-25T03:18:21;102179.67;;;23.69;33.20
69239;BME280;56349;51.816;-0.026;2023-05-25T03:20:47;102178.46;;;23.65;33.25
69239;BME280;56349;51.816;-0.026;2023-05-25T03:23:13;102179.45;;;23.63;33.28
69239;BME280;56349;51.816;-0.026;2023-05-25T03:25:39;102179.86;;;23.60;33.31
69239;BME280;56349;51.816;-0.026;2023-05-25T03:28:05;102180.27;;;23.58;33.34
69239;BME280;56349;51.816;-0.026;2023-05-25T03:30:31;102180.97;;;23.55;33.41
69239;BME280;56349;51.816;-0.026;2023-05-25T03:32:57;102181.53;;;23.76;33.49
69239;BME280;56349;51.816;-0.026;2023-05-25T03:35:23;102183.48;;;23.55;33.56
69239;BME280;56349;51.816;-0.026;2023-05-25T03:37:49;102186.12;;;23.61;33.60
69239;BME280;56349;51.816;-0.026;2023-05-25T03:40:14;102189.67;;;23.70;33.60
69239;BME280;56349;51.816;-0.026;2023-05-25T03:42:40;102189.00;;;23.81;33.58
69239;BME280;56349;51.816;-0.026;2023-05-25T03:45:06;102190.41;;;23.96;33.48
69239;BME280;56349;51.816;-0.026;2023-05-25T03:47:32;102192.10;;;23.89;33.33
69239;BME280;56349;51.816;-0.026;2023-05-25T03:49:56;102189.17;;;24.08;33.13
69239;BME280;56349;51.816;-0.026;2023-05-25T03:52:22;102189.11;;;24.25;32.95
69239;BME280;56349;51.816;-0.026;2023-05-25T03:54:48;102188.63;;;24.38;32.78
69239;BME280;56349;51.816;-0.026;2023-05-25T03:57:14;102189.36;;;24.01;32.65
69239;BME280;56349;51.816;-0.026;2023-05-25T03:59:40;102187.28;;;24.08;32.53
69239;BME280;56349;51.816;-0.026;2023-05-25T04:02:06;102187.29;;;24.12;32.44
69239;BME280;56349;51.816;-0.026;2023-05-25T04:04:32;102186.93;;;24.36;32.38
69239;BME280;56349;51.816;-0.026;2023-05-25T04:06:58;102188.34;;;24.35;32.34
69239;BME280;56349;51.816;-0.026;2023-05-25T04:09:24;102188.31;;;24.33;32.30
69239;BME280;56349;51.816;-0.026;2023-05-25T04:11:50;102191.19;;;24.51;32.31
69239;BME280;56349;51.816;-0.026;2023-05-25T04:14:15;102193.08;;;24.46;32.32
69239;BME280;56349;51.816;-0.026;2023-05-25T04:16:41;102198.02;;;24.42;32.34
69239;BME280;56349;51.816;-0.026;2023-05-25T04:19:07;102199.65;;;24.14;32.36
69239;BME280;56349;51.816;-0.026;2023-05-25T04:21:34;102202.01;;;24.33;32.37
69239;BME280;56349;51.816;-0.026;2023-05-25T04:24:00;102202.41;;;24.28;32.41
69239;BME280;56349;51.816;-0.026;2023-05-25T04:26:26;102202.90;;;24.49;32.43
69239;BME280;56349;51.816;-0.026;2023-05-25T04:28:52;102203.16;;;24.17;32.45
69239;BME280;56349;51.816;-0.026;2023-05-25T04:31:17;102202.45;;;24.09;32.50
69239;BME280;56349;51.816;-0.026;2023-05-25T04:33:43;102208.40;;;24.03;32.53
69239;BME280;56349;51.816;-0.026;2023-05-25T04:36:09;102212.09;;;23.97;32.57
69239;BME280;56349;51.816;-0.026;2023-05-25T04:38:35;102213.25;;;23.91;32.62
69239;BME280;56349;51.816;-0.026;2023-05-25T04:41:01;102216.30;;;23.87;32.66
69239;BME280;56349;51.816;-0.026;2023-05-25T04:43:27;102215.91;;;23.81;32.69
69239;BME280;56349;51.816;-0.026;2023-05-25T04:45:53;102214.79;;;23.73;32.74
69239;BME280;56349;51.816;-0.026;2023-05-25T04:48:19;102215.32;;;23.67;32.79
69239;BME280;56349;51.816;-0.026;2023-05-25T04:50:44;102216.81;;;23.90;32.82
69239;BME280;56349;51.816;-0.026;2023-05-25T04:53:10;102216.63;;;23.84;32.87
69239;BME280;56349;51.816;-0.026;2023-05-25T04:55:36;102217.20;;;24.00;32.92
69239;BME280;56349;51.816;-0.026;2023-05-25T04:58:01;102219.29;;;23.72;32.99
69239;BME280;56349;51.816;-0.026;2023-05-25T05:00:28;102224.57;;;23.68;33.04
69239;BME280;56349;51.816;-0.026;2023-05-25T05:02:54;102221.78;;;23.63;33.10
69239;BME280;56349;51.816;-0.026;2023-05-25T05:05:19;102227.75;;;23.58;33.15
69239;BME280;56349;51.816;-0.026;2023-05-25T05:07:45;102229.69;;;23.54;33.21
69239;BME280;56349;51.816;-0.026;2023-05-25T05:10:10;102230.37;;;23.50;33.27
69239;BME280;56349;51.816;-0.026;2023-05-25T05:12:36;102234.46;;;23.69;33.32
69239;BME280;56349;51.816;-0.026;2023-05-25T05:15:03;102241.73;;;23.65;33.36
69239;BME280;56349;51.816;-0.026;2023-05-25T05:17:28;102241.28;;;23.40;33.40
69239;BME280;56349;51.816;-0.026;2023-05-25T05:19:53;102241.96;;;23.63;33.41
69239;BME280;56349;51.816;-0.026;2023-05-25T05:22:19;102241.60;;;23.58;33.46
69239;BME280;56349;51.816;-0.026;2023-05-25T05:24:44;102244.92;;;23.31;33.51
69239;BME280;56349;51.816;-0.026;2023-05-25T05:27:12;102245.75;;;23.50;33.55
69239;BME280;56349;51.816;-0.026;2023-05-25T05:29:35;102252.33;;;23.47;33.60
69239;BME280;56349;51.816;-0.026;2023-05-25T05:32:01;102254.16;;;23.45;33.59
69239;BME280;56349;51.816;-0.026;2023-05-25T05:34:27;102258.41;;;23.44;33.59
69239;BME280;56349;51.816;-0.026;2023-05-25T05:36:53;102261.86;;;23.42;33.61
69239;BME280;56349;51.816;-0.026;2023-05-25T05:39:19;102262.73;;;23.39;33.62
69239;BME280;56349;51.816;-0.026;2023-05-25T05:41:45;102260.69;;;23.38;33.77
69239;BME280;56349;51.816;-0.026;2023-05-25T05:44:11;102262.64;;;23.17;33.75
69239;BME280;56349;51.816;-0.026;2023-05-25T05:46:37;102265.36;;;23.42;33.86
69239;BME280;56349;51.816;-0.026;2023-05-25T05:49:03;102271.36;;;23.42;34.02
69239;BME280;56349;51.816;-0.026;2023-05-25T05:51:29;102275.60;;;23.45;34.38
69239;BME280;56349;51.816;-0.026;2023-05-25T05:53:55;102276.75;;;23.48;34.65
69239;BME280;56349;51.816;-0.026;2023-05-25T05:56:21;102281.71;;;23.35;35.14
69239;BME280;56349;51.816;-0.026;2023-05-25T05:58:46;102285.51;;;23.51;35.21
69239;BME280;56349;51.816;-0.026;2023-05-25T06:01:13;102285.15;;;23.70;35.31
69239;BME280;56349;51.816;-0.026;2023-05-25T06:03:37;102290.06;;;23.95;35.15
69239;BME280;56349;51.816;-0.026;2023-05-25T06:06:03;102288.04;;;23.95;35.12
69239;BME280;56349;51.816;-0.026;2023-05-25T06:08:29;102286.75;;;24.21;34.96
69239;BME280;56349;51.816;-0.026;2023-05-25T06:10:55;102288.84;;;24.27;34.65
69239;BME280;56349;51.816;-0.026;2023-05-25T06:13:21;102291.44;;;24.08;34.42
69239;BME280;56349;51.816;-0.026;2023-05-25T06:15:47;102295.24;;;24.64;34.05
69239;BME280;56349;51.816;-0.026;2023-05-25T06:18:13;102297.83;;;24.95;33.76
69239;BME280;56349;51.816;-0.026;2023-05-25T06:20:38;102298.22;;;25.25;33.39
69239;BME280;56349;51.816;-0.026;2023-05-25T06:23:04;102301.10;;;25.51;33.03
69239;BME280;56349;51.816;-0.026;2023-05-25T06:25:30;102303.88;;;25.51;32.71
69239;BME280;56349;51.816;-0.026;2023-05-25T06:27:56;102301.85;;;25.54;32.40
69239;BME280;56349;51.816;-0.026;2023-05-25T06:30:22;102298.50;;;25.77;32.09
69239;BME280;56349;51.816;-0.026;2023-05-25T06:32:48;102299.26;;;25.99;31.82
69239;BME280;56349;51.816;-0.026;2023-05-25T06:35:13;102301.00;;;25.98;31.59
69239;BME280;56349;51.816;-0.026;2023-05-25T06:37:39;102299.49;;;26.17;31.35
69239;BME280;56349;51.816;-0.026;2023-05-25T06:40:06;102302.04;;;26.61;31.09
69239;BME280;56349;51.816;-0.026;2023-05-25T06:42:30;102302.33;;;26.30;30.82
69239;BME280;56349;51.816;-0.026;2023-05-25T06:44:56;102303.52;;;26.76;30.55
69239;BME280;56349;51.816;-0.026;2023-05-25T06:47:22;102304.35;;;26.67;30.32
69239;BME280;56349;51.816;-0.026;2023-05-25T06:49:48;102305.95;;;26.85;30.11
69239;BME280;56349;51.816;-0.026;2023-05-25T06:52:13;102310.86;;;27.02;29.89
69239;BME280;56349;51.816;-0.026;2023-05-25T06:54:39;102310.08;;;27.15;29.78
69239;BME280;56349;51.816;-0.026;2023-05-25T06:57:04;102309.82;;;27.27;29.68
69239;BME280;56349;51.816;-0.026;2023-05-25T06:59:30;102311.12;;;27.41;29.57
69239;BME280;56349;51.816;-0.026;2023-05-25T07:01:56;102311.50;;;27.31;29.40
69239;BME280;56349;51.816;-0.026;2023-05-25T07:04:22;102316.53;;;27.42;29.28
69239;BME280;56349;51.816;-0.026;2023-05-25T07:06:48;102317.74;;;27.50;29.20
69239;BME280;56349;51.816;-0.026;2023-05-25T07:09:13;102321.07;;;27.81;29.09
69239;BME280;56349;51.816;-0.026;2023-05-25T07:11:39;102322.69;;;27.69;29.11
69239;BME280;56349;51.816;-0.026;2023-05-25T07:14:05;102324.62;;;27.53;29.19
69239;BME280;56349;51.816;-0.026;2023-05-25T07:16:31;102325.19;;;27.90;28.99
69239;BME280;56349;51.816;-0.026;2023-05-25T07:18:57;102328.75;;;27.73;28.75
69239;BME280;56349;51.816;-0.026;2023-05-25T07:21:22;102327.72;;;27.83;28.62
69239;BME280;56349;51.816;-0.026;2023-05-25T07:23:48;102326.56;;;27.93;28.46
69239;BME280;56349;51.816;-0.026;2023-05-25T07:26:14;102324.31;;;28.03;28.30
69239;BME280;56349;51.816;-0.026;2023-05-25T07:28:40;102324.61;;;28.11;28.19
69239;BME280;56349;51.816;-0.026;2023-05-25T07:31:06;102321.82;;;27.75;28.04
69239;BME280;56349;51.816;-0.026;2023-05-25T07:33:31;102324.08;;;28.27;27.95
69239;BME280;56349;51.816;-0.026;2023-05-25T07:35:57;102323.67;;;28.34;27.88
69239;BME280;56349;51.816;-0.026;2023-05-25T07:38:23;102321.94;;;27.98;27.78
69239;BME280;56349;51.816;-0.026;2023-05-25T07:40:49;102325.25;;;28.49;27.65
69239;BME280;56349;51.816;-0.026;2023-05-25T07:43:14;102325.61;;;28.55;27.49
69239;BME280;56349;51.816;-0.026;2023-05-25T07:45:40;102330.82;;;28.37;27.39
69239;BME280;56349;51.816;-0.026;2023-05-25T07:48:06;102333.15;;;28.62;27.27
69239;BME280;56349;51.816;-0.026;2023-05-25T07:50:32;102332.33;;;28.65;27.08
69239;BME280;56349;51.816;-0.026;2023-05-25T07:52:58;102330.53;;;28.24;26.81
69239;BME280;56349;51.816;-0.026;2023-05-25T07:55:24;102336.05;;;28.50;26.57
69239;BME280;56349;51.816;-0.026;2023-05-25T07:57:49;102334.68;;;28.77;26.34
69239;BME280;56349;51.816;-0.026;2023-05-25T08:00:16;102336.82;;;28.37;26.18
69239;BME280;56349;51.816;-0.026;2023-05-25T08:02:41;102339.45;;;28.41;26.12
69239;BME280;56349;51.816;-0.026;2023-05-25T08:05:07;102340.22;;;28.42;26.04
69239;BME280;56349;51.816;-0.026;2023-05-25T08:07:33;102342.06;;;28.46;25.93
69239;BME280;56349;51.816;-0.026;2023-05-25T08:09:57;102347.36;;;28.41;26.23
69239;BME280;56349;51.816;-0.026;2023-05-25T08:12:23;102350.63;;;28.40;26.23
69239;BME280;56349;51.816;-0.026;2023-05-25T08:14:49;102350.65;;;28.89;26.15
69239;BME280;56349;51.816;-0.026;2023-05-25T08:17:15;102349.05;;;28.50;25.74
69239;BME280;56349;51.816;-0.026;2023-05-25T08:19:40;102352.46;;;28.54;25.54
69239;BME280;56349;51.816;-0.026;2023-05-25T08:22:07;102355.10;;;28.57;25.38
69239;BME280;56349;51.816;-0.026;2023-05-25T08:24:32;102356.37;;;28.57;25.24
69239;BME280;56349;51.816;-0.026;2023-05-25T08:26:58;102360.10;;;28.59;25.18
69239;BME280;56349;51.816;-0.026;2023-05-25T08:29:23;102357.39;;;28.61;25.17
69239;BME280;56349;51.816;-0.026;2023-05-25T08:31:49;102359.91;;;28.63;24.96
69239;BME280;56349;51.816;-0.026;2023-05-25T08:34:15;102360.84;;;28.65;24.80
69239;BME280;56349;51.816;-0.026;2023-05-25T08:36:41;102362.58;;;28.68;24.76
69239;BME280;56349;51.816;-0.026;2023-05-25T08:39:09;102366.26;;;28.73;24.68
69239;BME280;56349;51.816;-0.026;2023-05-25T08:41:36;102366.29;;;28.72;24.77
69239;BME280;56349;51.816;-0.026;2023-05-25T08:44:00;102362.02;;;28.93;24.74
69239;BME280;56349;51.816;-0.026;2023-05-25T08:46:28;102362.54;;;28.72;24.84
69239;BME280;56349;51.816;-0.026;2023-05-25T08:48:54;102360.95;;;28.44;25.00
69239;BME280;56349;51.816;-0.026;2023-05-25T08:51:18;102361.69;;;28.46;24.94
69239;BME280;56349;51.816;-0.026;2023-05-25T08:53:44;102364.56;;;28.76;24.86
69239;BME280;56349;51.816;-0.026;2023-05-25T08:56:13;102361.16;;;28.81;24.75
69239;BME280;56349;51.816;-0.026;2023-05-25T08:58:41;102366.22;;;28.81;24.52
69239;BME280;56349;51.816;-0.026;2023-05-25T09:01:03;102367.98;;;28.79;24.38
69239;BME280;56349;51.816;-0.026;2023-05-25T09:03:28;102369.46;;;28.79;24.24
69239;BME280;56349;51.816;-0.026;2023-05-25T09:05:54;102370.85;;;28.80;24.13
69239;BME280;56349;51.816;-0.026;2023-05-25T09:08:17;102371.31;;;28.81;24.20
69239;BME280;56349;51.816;-0.026;2023-05-25T09:10:43;102375.85;;;28.80;24.43
69239;BME280;56349;51.816;-0.026;2023-05-25T09:13:09;102376.22;;;28.80;24.55
69239;BME280;56349;51.816;-0.026;2023-05-25T09:15:35;102375.82;;;28.55;24.65
69239;BME280;56349;51.816;-0.026;2023-05-25T09:18:00;102377.02;;;28.82;24.51
69239;BME280;56349;51.816;-0.026;2023-05-25T09:20:26;102375.12;;;28.82;24.14
69239;BME280;56349;51.816;-0.026;2023-05-25T09:22:52;102375.69;;;28.83;23.96
69239;BME280;56349;51.816;-0.026;2023-05-25T09:25:18;102378.68;;;28.84;23.87
69239;BME280;56349;51.816;-0.026;2023-05-25T09:27:44;102378.50;;;28.84;24.02
69239;BME280;56349;51.816;-0.026;2023-05-25T09:30:09;102381.13;;;28.59;24.08
69239;BME280;56349;51.816;-0.026;2023-05-25T09:32:34;102381.49;;;28.91;23.99
69239;BME280;56349;51.816;-0.026;2023-05-25T09:35:07;102383.12;;;28.92;23.93
69239;BME280;56349;51.816;-0.026;2023-05-25T09:37:25;102376.13;;;28.91;23.95
69239;BME280;56349;51.816;-0.026;2023-05-25T09:39:51;102376.45;;;28.91;23.91
69239;BME280;56349;51.816;-0.026;2023-05-25T09:42:17;102377.93;;;28.92;23.82
69239;BME280;56349;51.816;-0.026;2023-05-25T09:44:44;102375.73;;;28.91;23.82
69239;BME280;56349;51.816;-0.026;2023-05-25T09:47:09;102373.37;;;28.91;23.77
69239;BME280;56349;51.816;-0.026;2023-05-25T09:49:35;102378.03;;;28.90;23.86
69239;BME280;56349;51.816;-0.026;2023-05-25T09:52:01;102382.44;;;28.62;24.11
69239;BME280;56349;51.816;-0.026;2023-05-25T09:54:27;102380.27;;;28.89;23.94
69239;BME280;56349;51.816;-0.026;2023-05-25T09:56:52;102382.39;;;28.62;23.74
69239;BME280;56349;51.816;-0.026;2023-05-25T09:59:18;102384.95;;;28.90;23.61
69239;BME280;56349;51.816;-0.026;2023-05-25T10:01:44;102385.84;;;28.92;23.53
69239;BME280;56349;51.816;-0.026;2023-05-25T10:04:10;102389.15;;;28.94;23.45
69239;BME280;56349;51.816;-0.026;2023-05-25T10:06:37;102394.53;;;28.66;23.44
69239;BME280;56349;51.816;-0.026;2023-05-25T10:09:01;102398.06;;;28.67;23.34
69239;BME280;56349;51.816;-0.026;2023-05-25T10:11:28;102403.39;;;28.67;23.16
69239;BME280;56349;51.816;-0.026;2023-05-25T10:13:54;102403.73;;;28.65;23.07
69239;BME280;56349;51.816;-0.026;2023-05-25T10:16:23;102408.97;;;28.92;23.01
69239;BME280;56349;51.816;-0.026;2023-05-25T10:18:49;102407.46;;;28.92;22.98
69239;BME280;56349;51.816;-0.026;2023-05-25T10:21:10;102407.62;;;28.95;23.07
69239;BME280;56349;51.816;-0.026;2023-05-25T10:23:38;102408.81;;;29.01;23.08
69239;BME280;56349;51.816;-0.026;2023-05-25T10:26:02;102405.75;;;29.07;23.30
69239;BME280;56349;51.816;-0.026;2023-05-25T10:28:28;102410.76;;;29.11;23.37
69239;BME280;56349;51.816;-0.026;2023-05-25T10:30:55;102408.00;;;28.87;23.55
69239;BME280;56349;51.816;-0.026;2023-05-25T10:33:19;102411.34;;;28.88;23.75
69239;BME280;56349;51.816;-0.026;2023-05-25T10:35:45;102413.50;;;28.69;23.86
69239;BME280;56349;51.816;-0.026;2023-05-25T10:38:11;102417.96;;;28.95;23.95
69239;BME280;56349;51.816;-0.026;2023-05-25T10:40:37;102425.76;;;28.98;24.00
69239;BME280;56349;51.816;-0.026;2023-05-25T10:43:02;102427.01;;;29.30;24.03
69239;BME280;56349;51.816;-0.026;2023-05-25T10:45:28;102425.92;;;29.34;24.05
69239;BME280;56349;51.816;-0.026;2023-05-25T10:47:54;102431.18;;;29.36;24.09
69239;BME280;56349;51.816;-0.026;2023-05-25T10:50:21;102428.90;;;29.09;24.16
69239;BME280;56349;51.816;-0.026;2023-05-25T10:52:45;102427.92;;;29.11;24.10
69239;BME280;56349;51.816;-0.026;2023-05-25T10:55:11;102428.10;;;29.10;24.16
69239;BME280;56349;51.816;-0.026;2023-05-25T10:57:37;102427.42;;;29.38;24.06
69239;BME280;56349;51.816;-0.026;2023-05-25T11:00:04;102427.54;;;28.88;23.80
69239;BME280;56349;51.816;-0.026;2023-05-25T11:02:29;102426.72;;;29.12;23.69
69239;BME280;56349;51.816;-0.026;2023-05-25T11:07:21;102426.69;;;29.12;23.71
69239;BME280;56349;51.816;-0.026;2023-05-25T11:12:18;102432.82;;;29.44;23.67
69239;BME280;56349;51.816;-0.026;2023-05-25T11:14:35;102428.93;;;29.18;23.70
69239;BME280;56349;51.816;-0.026;2023-05-25T11:17:04;102425.14;;;29.20;23.70
69239;BME280;56349;51.816;-0.026;2023-05-25T11:21:52;102423.48;;;29.24;23.70
69239;BME280;56349;51.816;-0.026;2023-05-25T11:24:17;102419.72;;;29.25;23.87
69239;BME280;56349;51.816;-0.026;2023-05-25T11:26:52;102419.78;;;29.51;24.02
69239;BME280;56349;51.816;-0.026;2023-05-25T11:29:12;102415.99;;;29.04;24.13
69239;BME280;56349;51.816;-0.026;2023-05-25T11:31:35;102420.01;;;29.28;24.18
69239;BME280;56349;51.816;-0.026;2023-05-25T11:34:03;102416.81;;;29.24;24.26
69239;BME280;56349;51.816;-0.026;2023-05-25T11:36:27;102417.40;;;29.23;24.29
69239;BME280;56349;51.816;-0.026;2023-05-25T11:38:52;102419.64;;;29.26;24.29
69239;BME280;56349;51.816;-0.026;2023-05-25T11:41:18;102420.86;;;29.29;24.31
69239;BME280;56349;51.816;-0.026;2023-05-25T11:43:45;102421.19;;;29.29;24.35
69239;BME280;56349;51.816;-0.026;2023-05-25T11:46:08;102423.09;;;29.27;24.43
69239;BME280;56349;51.816;-0.026;2023-05-25T11:48:34;102422.63;;;29.54;24.40
69239;BME280;56349;51.816;-0.026;2023-05-25T11:51:04;102428.49;;;29.29;24.42
69239;BME280;56349;51.816;-0.026;2023-05-25T11:53:26;102425.16;;;29.31;24.39
69239;BME280;56349;51.816;-0.026;2023-05-25T11:55:52;102420.22;;;29.35;24.40
69239;BME280;56349;51.816;-0.026;2023-05-25T11:58:18;102418.27;;;29.13;24.44
69239;BME280;56349;51.816;-0.026;2023-05-25T12:00:43;102415.61;;;29.12;24.53
69239;BME280;56349;51.816;-0.026;2023-05-25T12:05:38;102417.03;;;29.15;24.57
69239;BME280;56349;51.816;-0.026;2023-05-25T12:08:00;102419.56;;;29.69;24.58
69239;BME280;56349;51.816;-0.026;2023-05-25T12:10:26;102421.12;;;29.43;24.71
69239;BME280;56349;51.816;-0.026;2023-05-25T12:12:52;102419.62;;;29.23;24.74
69239;BME280;56349;51.816;-0.026;2023-05-25T12:15:21;102419.17;;;29.48;24.69
69239;BME280;56349;51.816;-0.026;2023-05-25T12:17:44;102421.96;;;29.28;24.52
69239;BME280;56349;51.816;-0.026;2023-05-25T12:20:11;102425.09;;;29.52;24.65
69239;BME280;56349;51.816;-0.026;2023-05-25T12:22:35;102423.22;;;29.53;24.63
69239;BME280;56349;51.816;-0.026;2023-05-25T12:25:00;102424.09;;;29.55;24.36
69239;BME280;56349;51.816;-0.026;2023-05-25T12:27:26;102426.77;;;29.30;24.46
69239;BME280;56349;51.816;-0.026;2023-05-25T12:29:52;102427.98;;;29.52;24.30
69239;BME280;56349;51.816;-0.026;2023-05-25T12:32:18;102433.77;;;29.51;24.32
69239;BME280;56349;51.816;-0.026;2023-05-25T12:34:44;102428.47;;;29.52;24.37
69239;BME280;56349;51.816;-0.026;2023-05-25T12:37:16;102424.74;;;29.52;24.54
69239;BME280;56349;51.816;-0.026;2023-05-25T12:39:35;102425.11;;;29.53;24.61
69239;BME280;56349;51.816;-0.026;2023-05-25T12:42:01;102422.39;;;29.28;24.63